sensor_id;sensor_type;location;lat;lon;timestamp;temperature;humidity
45207;DHT22;30950;53.086;21.576;2023-04-01T00:00:07;9.40;99.90
45207;DHT22;30950;53.086;21.576;2023-04-01T00:02:58;9.40;99.90
45207;DHT22;30950;53.086;21.576;2023-04-01T00:05:25;9.60;99.90
45207;DHT22;30950;53.086;21.576;2023-04-01T00:07:53;9.40;99.90
45207;DHT22;30950;53.086;21.576;2023-04-01T00:10:20;9.40;99.90
45207;DHT22;30950;53.086;21.576;2023-04-01T00:12:47;9.40;99.90
45207;DHT22;30950;53.086;21.576;2023-04-01T00:15:14;9.30;99.90
45207;DHT22;30950;53.086;21.576;2023-04-01T00:17:42;9.30;99.90
45207;DHT22;30950;53.086;21.576;2023-04-01T00:20:10;9.30;99.90
45207;DHT22;30950;53.086;21.576;2023-04-01T00:22:37;9.30;99.90
45207;DHT22;30950;53.086;21.576;2023-04-01T00:25:05;9.30;99.90
45207;DHT22;30950;53.086;21.576;2023-04-01T00:27:33;9.30;99.90
45207;DHT22;30950;53.086;21.576;2023-04-01T00:30:00;9.20;99.90
45207;DHT22;30950;53.086;21.576;2023-04-01T00:32:28;9.20;99.90
45207;DHT22;30950;53.086;21.576;2023-04-01T00:34:56;9.20;99.90
45207;DHT22;30950;53.086;21.576;2023-04-01T00:37:24;9.80;99.90
45207;DHT22;30950;53.086;21.576;2023-04-01T00:39:51;9.40;99.90
45207;DHT22;30950;53.086;21.576;2023-04-01T00:42:19;9.20;99.90
45207;DHT22;30950;53.086;21.576;2023-04-01T00:44:54;9.20;99.90
45207;DHT22;30950;53.086;21.576;2023-04-01T00:47:23;9.20;99.90
45207;DHT22;30950;53.086;21.576;2023-04-01T00:49:54;9.20;99.90
45207;DHT22;30950;53.086;21.576;2023-04-01T00:52:23;9.50;99.90
45207;DHT22;30950;53.086;21.576;2023-04-01T00:54:56;9.20;99.90
45207;DHT22;30950;53.086;21.576;2023-04-01T00:57:34;9.20;99.90
45207;DHT22;30950;53.086;21.576;2023-04-01T01:00:09;9.20;99.90
45207;DHT22;30950;53.086;21.576;2023-04-01T01:02:38;9.20;99.90
45207;DHT22;30950;53.086;21.576;2023-04-01T01:05:12;9.20;99.90
45207;DHT22;30950;53.086;21.576;2023-04-01T01:08:03;9.30;99.90
45207;DHT22;30950;53.086;21.576;2023-04-01T01:10:39;9.20;99.90
45207;DHT22;30950;53.086;21.576;2023-04-01T01:15:53;9.20;99.90
45207;DHT22;30950;53.086;21.576;2023-04-01T01:32:43;9.20;99.90
45207;DHT22;30950;53.086;21.576;2023-04-01T01:38:11;9.20;99.90
45207;DHT22;30950;53.086;21.576;2023-04-01T01:40:46;9.20;99.90
45207;DHT22;30950;53.086;21.576;2023-04-01T01:43:18;9.20;99.90
45207;DHT22;30950;53.086;21.576;2023-04-01T01:45:49;9.20;99.90
45207;DHT22;30950;53.086;21.576;2023-04-01T01:48:18;9.30;99.90
45207;DHT22;30950;53.086;21.576;2023-04-01T01:50:48;9.20;99.90
45207;DHT22;30950;53.086;21.576;2023-04-01T01:53:15;9.20;99.90
45207;DHT22;30950;53.086;21.576;2023-04-01T01:55:46;9.20;99.90
45207;DHT22;30950;53.086;21.576;2023-04-01T01:58:51;9.20;99.90
45207;DHT22;30950;53.086;21.576;2023-04-01T02:01:24;9.20;99.90
45207;DHT22;30950;53.086;21.576;2023-04-01T02:03:57;9.40;99.90
45207;DHT22;30950;53.086;21.576;2023-04-01T02:06:29;9.20;99.90
45207;DHT22;30950;53.086;21.576;2023-04-01T02:09:00;9.20;99.90
45207;DHT22;30950;53.086;21.576;2023-04-01T02:11:34;9.20;99.90
45207;DHT22;30950;53.086;21.576;2023-04-01T02:14:13;9.20;99.90
45207;DHT22;30950;53.086;21.576;2023-04-01T02:16:53;9.20;99.90
45207;DHT22;30950;53.086;21.576;2023-04-01T02:19:39;9.10;99.90
45207;DHT22;30950;53.086;21.576;2023-04-01T02:22:12;9.10;99.90
45207;DHT22;30950;53.086;21.576;2023-04-01T02:24:42;9.10;99.90
45207;DHT22;30950;53.086;21.576;2023-04-01T02:27:11;9.60;99.90
45207;DHT22;30950;53.086;21.576;2023-04-01T02:29:38;9.10;99.90
45207;DHT22;30950;53.086;21.576;2023-04-01T02:32:09;9.10;99.90
45207;DHT22;30950;53.086;21.576;2023-04-01T02:34:37;9.10;99.90
45207;DHT22;30950;53.086;21.576;2023-04-01T02:37:04;9.10;99.90
45207;DHT22;30950;53.086;21.576;2023-04-01T02:39:31;9.10;99.90
45207;DHT22;30950;53.086;21.576;2023-04-01T02:41:59;9.10;99.90
45207;DHT22;30950;53.086;21.576;2023-04-01T02:44:26;9.10;99.90
45207;DHT22;30950;53.086;21.576;2023-04-01T02:46:53;9.10;99.90
45207;DHT22;30950;53.086;21.576;2023-04-01T02:49:21;9.10;99.90
45207;DHT22;30950;53.086;21.576;2023-04-01T02:51:48;9.10;99.90
45207;DHT22;30950;53.086;21.576;2023-04-01T02:54:15;9.50;99.90
45207;DHT22;30950;53.086;21.576;2023-04-01T02:56:43;9.10;99.90
45207;DHT22;30950;53.086;21.576;2023-04-01T02:59:10;9.10;99.90
45207;DHT22;30950;53.086;21.576;2023-04-01T03:01:38;9.10;99.90
45207;DHT22;30950;53.086;21.576;2023-04-01T03:04:05;9.40;99.90
45207;DHT22;30950;53.086;21.576;2023-04-01T03:06:32;9.20;99.90
45207;DHT22;30950;53.086;21.576;2023-04-01T03:09:00;9.10;99.90
45207;DHT22;30950;53.086;21.576;2023-04-01T03:11:27;9.10;99.90
45207;DHT22;30950;53.086;21.576;2023-04-01T03:13:54;9.10;99.90
45207;DHT22;30950;53.086;21.576;2023-04-01T03:16:22;9.10;99.90
45207;DHT22;30950;53.086;21.576;2023-04-01T03:18:50;9.10;99.90
45207;DHT22;30950;53.086;21.576;2023-04-01T03:21:21;9.10;99.90
45207;DHT22;30950;53.086;21.576;2023-04-01T03:23:50;9.10;99.90
45207;DHT22;30950;53.086;21.576;2023-04-01T03:26:17;9.10;99.90
45207;DHT22;30950;53.086;21.576;2023-04-01T03:28:45;9.10;99.90
45207;DHT22;30950;53.086;21.576;2023-04-01T03:31:12;9.40;99.90
45207;DHT22;30950;53.086;21.576;2023-04-01T03:33:47;9.10;99.90
45207;DHT22;30950;53.086;21.576;2023-04-01T03:36:15;9.10;99.90
45207;DHT22;30950;53.086;21.576;2023-04-01T03:38:44;9.10;99.90
45207;DHT22;30950;53.086;21.576;2023-04-01T03:41:16;9.10;99.90
45207;DHT22;30950;53.086;21.576;2023-04-01T03:43:44;9.00;99.90
45207;DHT22;30950;53.086;21.576;2023-04-01T03:46:17;9.10;99.90
45207;DHT22;30950;53.086;21.576;2023-04-01T03:48:46;9.40;99.90
45207;DHT22;30950;53.086;21.576;2023-04-01T03:51:13;9.80;99.90
45207;DHT22;30950;53.086;21.576;2023-04-01T03:53:41;9.10;99.90
45207;DHT22;30950;53.086;21.576;2023-04-01T03:56:08;9.00;99.90
45207;DHT22;30950;53.086;21.576;2023-04-01T03:58:36;8.90;99.90
45207;DHT22;30950;53.086;21.576;2023-04-01T04:01:16;8.90;99.90
45207;DHT22;30950;53.086;21.576;2023-04-01T04:03:44;8.90;99.90
45207;DHT22;30950;53.086;21.576;2023-04-01T04:06:14;8.90;99.90
45207;DHT22;30950;53.086;21.576;2023-04-01T04:08:42;9.00;99.90
45207;DHT22;30950;53.086;21.576;2023-04-01T04:11:10;8.80;99.90
45207;DHT22;30950;53.086;21.576;2023-04-01T04:13:41;8.80;99.90
45207;DHT22;30950;53.086;21.576;2023-04-01T04:16:10;8.80;99.90
45207;DHT22;30950;53.086;21.576;2023-04-01T04:18:45;8.70;99.90
45207;DHT22;30950;53.086;21.576;2023-04-01T04:21:14;8.80;99.90
45207;DHT22;30950;53.086;21.576;2023-04-01T04:23:43;8.80;99.90
45207;DHT22;30950;53.086;21.576;2023-04-01T04:26:14;8.80;99.90
45207;DHT22;30950;53.086;21.576;2023-04-01T04:28:46;8.80;99.90
45207;DHT22;30950;53.086;21.576;2023-04-01T04:31:21;8.90;99.90
45207;DHT22;30950;53.086;21.576;2023-04-01T04:33:50;8.80;99.90
45207;DHT22;30950;53.086;21.576;2023-04-01T04:36:19;8.80;99.90
45207;DHT22;30950;53.086;21.576;2023-04-01T04:38:49;8.90;99.90
45207;DHT22;30950;53.086;21.576;2023-04-01T04:41:18;8.80;99.90
45207;DHT22;30950;53.086;21.576;2023-04-01T04:43:50;8.80;99.90
45207;DHT22;30950;53.086;21.576;2023-04-01T04:46:18;8.90;99.90
45207;DHT22;30950;53.086;21.576;2023-04-01T04:48:50;8.80;99.90
45207;DHT22;30950;53.086;21.576;2023-04-01T04:51:19;8.90;99.90
45207;DHT22;30950;53.086;21.576;2023-04-01T04:53:47;8.90;99.90
45207;DHT22;30950;53.086;21.576;2023-04-01T04:56:19;9.10;99.90
45207;DHT22;30950;53.086;21.576;2023-04-01T04:58:54;9.00;99.90
45207;DHT22;30950;53.086;21.576;2023-04-01T05:01:25;9.00;99.90
45207;DHT22;30950;53.086;21.576;2023-04-01T05:03:53;9.00;99.90
45207;DHT22;30950;53.086;21.576;2023-04-01T05:06:20;9.00;99.90
45207;DHT22;30950;53.086;21.576;2023-04-01T05:08:49;9.00;99.90
45207;DHT22;30950;53.086;21.576;2023-04-01T05:11:18;9.10;99.90
45207;DHT22;30950;53.086;21.576;2023-04-01T05:13:47;9.10;99.90
45207;DHT22;30950;53.086;21.576;2023-04-01T05:16:17;9.20;99.90
45207;DHT22;30950;53.086;21.576;2023-04-01T05:18:46;9.10;99.90
45207;DHT22;30950;53.086;21.576;2023-04-01T05:21:14;9.10;99.90
45207;DHT22;30950;53.086;21.576;2023-04-01T05:23:42;9.10;99.90
45207;DHT22;30950;53.086;21.576;2023-04-01T05:26:13;9.10;99.90
45207;DHT22;30950;53.086;21.576;2023-04-01T05:28:41;9.20;99.90
45207;DHT22;30950;53.086;21.576;2023-04-01T05:31:08;9.10;99.90
45207;DHT22;30950;53.086;21.576;2023-04-01T05:33:41;9.20;99.90
45207;DHT22;30950;53.086;21.576;2023-04-01T05:36:10;9.20;99.90
45207;DHT22;30950;53.086;21.576;2023-04-01T05:38:38;9.30;99.90
45207;DHT22;30950;53.086;21.576;2023-04-01T05:41:09;9.20;99.90
45207;DHT22;30950;53.086;21.576;2023-04-01T05:43:42;9.30;99.90
45207;DHT22;30950;53.086;21.576;2023-04-01T05:46:28;9.40;99.90
45207;DHT22;30950;53.086;21.576;2023-04-01T05:49:12;9.30;99.90
45207;DHT22;30950;53.086;21.576;2023-04-01T05:51:39;9.30;99.90
45207;DHT22;30950;53.086;21.576;2023-04-01T05:54:07;9.30;99.90
45207;DHT22;30950;53.086;21.576;2023-04-01T05:56:34;9.30;99.90
45207;DHT22;30950;53.086;21.576;2023-04-01T05:59:02;9.30;99.90
45207;DHT22;30950;53.086;21.576;2023-04-01T06:01:29;9.40;99.90
45207;DHT22;30950;53.086;21.576;2023-04-01T06:03:57;9.40;99.90
45207;DHT22;30950;53.086;21.576;2023-04-01T06:06:30;9.30;99.90
45207;DHT22;30950;53.086;21.576;2023-04-01T06:09:17;9.30;99.90
45207;DHT22;30950;53.086;21.576;2023-04-01T06:11:55;9.40;99.90
45207;DHT22;30950;53.086;21.576;2023-04-01T06:17:32;9.40;99.90
45207;DHT22;30950;53.086;21.576;2023-04-01T06:25:56;9.40;99.90
45207;DHT22;30950;53.086;21.576;2023-04-01T06:31:54;9.40;99.90
45207;DHT22;30950;53.086;21.576;2023-04-01T06:46:48;9.50;99.90
45207;DHT22;30950;53.086;21.576;2023-04-01T06:50:21;9.50;99.90
45207;DHT22;30950;53.086;21.576;2023-04-01T06:56:12;9.40;99.90
45207;DHT22;30950;53.086;21.576;2023-04-01T06:59:17;9.50;99.90
45207;DHT22;30950;53.086;21.576;2023-04-01T07:01:57;9.40;99.90
45207;DHT22;30950;53.086;21.576;2023-04-01T07:04:29;9.40;99.90
45207;DHT22;30950;53.086;21.576;2023-04-01T07:09:59;9.30;99.90
45207;DHT22;30950;53.086;21.576;2023-04-01T07:15:30;9.30;99.90
45207;DHT22;30950;53.086;21.576;2023-04-01T07:18:16;9.30;99.90
45207;DHT22;30950;53.086;21.576;2023-04-01T07:20:45;9.20;99.90
45207;DHT22;30950;53.086;21.576;2023-04-01T07:23:22;9.60;99.90
45207;DHT22;30950;53.086;21.576;2023-04-01T07:26:00;9.30;99.90
45207;DHT22;30950;53.086;21.576;2023-04-01T07:28:54;9.30;99.90
45207;DHT22;30950;53.086;21.576;2023-04-01T07:34:28;9.40;99.90
45207;DHT22;30950;53.086;21.576;2023-04-01T07:37:12;9.30;99.90
45207;DHT22;30950;53.086;21.576;2023-04-01T07:40:09;9.30;99.90
45207;DHT22;30950;53.086;21.576;2023-04-01T07:54:40;9.40;99.90
45207;DHT22;30950;53.086;21.576;2023-04-01T07:57:34;9.50;99.90
45207;DHT22;30950;53.086;21.576;2023-04-01T08:11:43;9.60;99.90
45207;DHT22;30950;53.086;21.576;2023-04-01T08:14:52;9.50;99.90
45207;DHT22;30950;53.086;21.576;2023-04-01T08:18:20;9.50;99.90
45207;DHT22;30950;53.086;21.576;2023-04-01T08:20:53;9.60;99.90
45207;DHT22;30950;53.086;21.576;2023-04-01T08:23:42;9.60;99.90
45207;DHT22;30950;53.086;21.576;2023-04-01T08:29:05;9.70;99.90
45207;DHT22;30950;53.086;21.576;2023-04-01T08:31:38;9.70;99.90
45207;DHT22;30950;53.086;21.576;2023-04-01T08:34:15;9.70;99.90
45207;DHT22;30950;53.086;21.576;2023-04-01T08:36:57;9.80;99.90
45207;DHT22;30950;53.086;21.576;2023-04-01T08:39:48;9.80;99.90
45207;DHT22;30950;53.086;21.576;2023-04-01T08:42:43;9.90;99.90
45207;DHT22;30950;53.086;21.576;2023-04-01T08:56:54;10.20;99.90
45207;DHT22;30950;53.086;21.576;2023-04-01T09:02:35;10.20;99.90
45207;DHT22;30950;53.086;21.576;2023-04-01T09:34:51;10.70;99.90
45207;DHT22;30950;53.086;21.576;2023-04-01T09:37:34;10.80;99.90
45207;DHT22;30950;53.086;21.576;2023-04-01T09:43:14;10.90;99.90
45207;DHT22;30950;53.086;21.576;2023-04-01T09:57:49;10.80;99.90
45207;DHT22;30950;53.086;21.576;2023-04-01T10:14:35;10.80;99.90
45207;DHT22;30950;53.086;21.576;2023-04-01T10:20:08;10.90;99.90
45207;DHT22;30950;53.086;21.576;2023-04-01T10:31:35;11.00;99.90
45207;DHT22;30950;53.086;21.576;2023-04-01T10:36:53;11.10;99.90
45207;DHT22;30950;53.086;21.576;2023-04-01T10:39:52;11.70;99.90
45207;DHT22;30950;53.086;21.576;2023-04-01T11:21:21;10.60;99.90
45207;DHT22;30950;53.086;21.576;2023-04-01T11:35:29;10.30;99.90
45207;DHT22;30950;53.086;21.576;2023-04-01T11:38:39;10.20;99.90
45207;DHT22;30950;53.086;21.576;2023-04-01T11:44:20;10.00;99.90
45207;DHT22;30950;53.086;21.576;2023-04-01T11:47:58;10.00;99.90
45207;DHT22;30950;53.086;21.576;2023-04-01T11:56:17;9.90;99.90
45207;DHT22;30950;53.086;21.576;2023-04-01T12:02:29;9.90;99.90
45207;DHT22;30950;53.086;21.576;2023-04-01T12:05:54;9.90;99.90
45207;DHT22;30950;53.086;21.576;2023-04-01T12:08:38;10.00;99.90
45207;DHT22;30950;53.086;21.576;2023-04-01T12:11:20;10.00;99.90
45207;DHT22;30950;53.086;21.576;2023-04-01T12:14:15;9.90;99.90
45207;DHT22;30950;53.086;21.576;2023-04-01T12:17:04;9.90;99.90
45207;DHT22;30950;53.086;21.576;2023-04-01T12:24:46;9.80;99.90
45207;DHT22;30950;53.086;21.576;2023-04-01T12:27:49;9.80;99.90
45207;DHT22;30950;53.086;21.576;2023-04-01T12:33:15;9.70;99.90
45207;DHT22;30950;53.086;21.576;2023-04-01T12:41:57;9.70;99.90
45207;DHT22;30950;53.086;21.576;2023-04-01T12:44:57;9.70;99.90
45207;DHT22;30950;53.086;21.576;2023-04-01T12:48:00;9.60;99.90
45207;DHT22;30950;53.086;21.576;2023-04-01T12:55:42;9.60;99.90
45207;DHT22;30950;53.086;21.576;2023-04-01T12:58:50;9.50;99.90
45207;DHT22;30950;53.086;21.576;2023-04-01T13:04:32;9.50;99.90
45207;DHT22;30950;53.086;21.576;2023-04-01T13:09:57;9.60;99.90
45207;DHT22;30950;53.086;21.576;2023-04-01T13:15:41;9.30;99.90
45207;DHT22;30950;53.086;21.576;2023-04-01T13:18:52;9.40;99.90
45207;DHT22;30950;53.086;21.576;2023-04-01T13:29:53;9.20;99.90
45207;DHT22;30950;53.086;21.576;2023-04-01T13:35:16;9.20;99.90
45207;DHT22;30950;53.086;21.576;2023-04-01T13:43:39;9.20;99.90
45207;DHT22;30950;53.086;21.576;2023-04-01T14:03:37;9.10;99.90
45207;DHT22;30950;53.086;21.576;2023-04-01T14:34:15;8.90;99.90
45207;DHT22;30950;53.086;21.576;2023-04-01T14:48:57;8.70;99.90
45207;DHT22;30950;53.086;21.576;2023-04-01T14:51:35;8.70;99.90
45207;DHT22;30950;53.086;21.576;2023-04-01T14:57:01;8.60;99.90
45207;DHT22;30950;53.086;21.576;2023-04-01T14:59:29;8.60;99.90
45207;DHT22;30950;53.086;21.576;2023-04-01T15:02:08;8.50;99.90
45207;DHT22;30950;53.086;21.576;2023-04-01T15:04:49;8.50;99.90
45207;DHT22;30950;53.086;21.576;2023-04-01T15:12:53;8.50;99.90
45207;DHT22;30950;53.086;21.576;2023-04-01T15:34:52;8.50;99.90
45207;DHT22;30950;53.086;21.576;2023-04-01T15:49:06;8.50;99.90
45207;DHT22;30950;53.086;21.576;2023-04-01T16:03:55;8.50;99.90
45207;DHT22;30950;53.086;21.576;2023-04-01T16:09:06;8.50;99.90
45207;DHT22;30950;53.086;21.576;2023-04-01T16:22:57;8.50;99.90
45207;DHT22;30950;53.086;21.576;2023-04-01T16:25:36;8.50;99.90
45207;DHT22;30950;53.086;21.576;2023-04-01T16:28:25;8.40;99.90
45207;DHT22;30950;53.086;21.576;2023-04-01T16:31:15;8.40;99.90
45207;DHT22;30950;53.086;21.576;2023-04-01T16:44:55;8.30;99.90
45207;DHT22;30950;53.086;21.576;2023-04-01T16:47:36;8.30;99.90
45207;DHT22;30950;53.086;21.576;2023-04-01T16:50:19;8.20;99.90
45207;DHT22;30950;53.086;21.576;2023-04-01T16:53:10;8.20;99.90
45207;DHT22;30950;53.086;21.576;2023-04-01T16:56:24;8.20;99.90
45207;DHT22;30950;53.086;21.576;2023-04-01T17:12:32;8.00;99.90
45207;DHT22;30950;53.086;21.576;2023-04-01T17:15:40;8.00;99.90
45207;DHT22;30950;53.086;21.576;2023-04-01T17:20:43;7.90;99.90
45207;DHT22;30950;53.086;21.576;2023-04-01T17:23:34;7.90;99.90
45207;DHT22;30950;53.086;21.576;2023-04-01T17:29:03;7.80;99.90
45207;DHT22;30950;53.086;21.576;2023-04-01T17:31:45;7.80;99.90
45207;DHT22;30950;53.086;21.576;2023-04-01T17:34:25;7.70;99.90
45207;DHT22;30950;53.086;21.576;2023-04-01T17:40:06;7.70;99.90
45207;DHT22;30950;53.086;21.576;2023-04-01T17:43:06;7.60;99.90
45207;DHT22;30950;53.086;21.576;2023-04-01T17:45:49;7.60;99.90
45207;DHT22;30950;53.086;21.576;2023-04-01T17:49:02;7.60;99.90
45207;DHT22;30950;53.086;21.576;2023-04-01T17:51:42;7.50;99.90
45207;DHT22;30950;53.086;21.576;2023-04-01T18:08:51;7.40;99.90
45207;DHT22;30950;53.086;21.576;2023-04-01T18:11:53;7.40;99.90
45207;DHT22;30950;53.086;21.576;2023-04-01T18:14:44;7.40;99.90
45207;DHT22;30950;53.086;21.576;2023-04-01T18:17:23;7.40;99.90
45207;DHT22;30950;53.086;21.576;2023-04-01T18:23:19;7.40;99.90
45207;DHT22;30950;53.086;21.576;2023-04-01T18:25:53;7.30;99.90
45207;DHT22;30950;53.086;21.576;2023-04-01T18:28:38;7.30;99.90
45207;DHT22;30950;53.086;21.576;2023-04-01T18:33:49;7.20;99.90
45207;DHT22;30950;53.086;21.576;2023-04-01T18:39:23;7.30;99.90
45207;DHT22;30950;53.086;21.576;2023-04-01T18:45:17;7.20;99.90
45207;DHT22;30950;53.086;21.576;2023-04-01T18:50:55;7.20;99.90
45207;DHT22;30950;53.086;21.576;2023-04-01T18:59:11;7.10;99.90
45207;DHT22;30950;53.086;21.576;2023-04-01T19:04:37;7.20;99.90
45207;DHT22;30950;53.086;21.576;2023-04-01T19:16:04;7.10;99.90
45207;DHT22;30950;53.086;21.576;2023-04-01T19:21:39;7.10;99.90
45207;DHT22;30950;53.086;21.576;2023-04-01T19:26:46;7.10;99.90
45207;DHT22;30950;53.086;21.576;2023-04-01T19:29:25;7.00;99.90
45207;DHT22;30950;53.086;21.576;2023-04-01T19:37:48;7.00;99.90
45207;DHT22;30950;53.086;21.576;2023-04-01T19:40:39;7.00;99.90
45207;DHT22;30950;53.086;21.576;2023-04-01T19:52:13;6.90;99.90
45207;DHT22;30950;53.086;21.576;2023-04-01T20:00:34;6.80;99.90
45207;DHT22;30950;53.086;21.576;2023-04-01T20:06:10;6.80;99.90
45207;DHT22;30950;53.086;21.576;2023-04-01T20:08:58;6.80;99.90
45207;DHT22;30950;53.086;21.576;2023-04-01T20:25:25;6.70;99.90
45207;DHT22;30950;53.086;21.576;2023-04-01T20:35:49;6.60;99.90
45207;DHT22;30950;53.086;21.576;2023-04-01T21:11:37;6.50;99.90
45207;DHT22;30950;53.086;21.576;2023-04-01T21:22:58;6.50;99.90
45207;DHT22;30950;53.086;21.576;2023-04-01T21:33:29;6.40;99.90
45207;DHT22;30950;53.086;21.576;2023-04-01T21:39:27;6.40;99.90
45207;DHT22;30950;53.086;21.576;2023-04-01T21:42:18;6.30;99.90
45207;DHT22;30950;53.086;21.576;2023-04-01T21:56:22;6.20;99.90
45207;DHT22;30950;53.086;21.576;2023-04-01T22:05:11;6.20;99.90
45207;DHT22;30950;53.086;21.576;2023-04-01T22:13:24;6.10;99.90
45207;DHT22;30950;53.086;21.576;2023-04-01T22:19:00;6.10;99.90
45207;DHT22;30950;53.086;21.576;2023-04-01T22:24:16;6.10;99.90
45207;DHT22;30950;53.086;21.576;2023-04-01T22:35:33;6.00;99.90
45207;DHT22;30950;53.086;21.576;2023-04-01T22:38:35;6.00;99.90
45207;DHT22;30950;53.086;21.576;2023-04-01T22:41:17;6.00;99.90
45207;DHT22;30950;53.086;21.576;2023-04-01T22:43:48;6.00;99.90
45207;DHT22;30950;53.086;21.576;2023-04-01T22:46:43;6.00;99.90
45207;DHT22;30950;53.086;21.576;2023-04-01T22:52:03;5.90;99.90
45207;DHT22;30950;53.086;21.576;2023-04-01T22:54:37;6.00;99.90
45207;DHT22;30950;53.086;21.576;2023-04-01T23:05:59;6.00;99.90
45207;DHT22;30950;53.086;21.576;2023-04-01T23:11:08;5.90;99.90
45207;DHT22;30950;53.086;21.576;2023-04-01T23:13:44;5.90;99.90
45207;DHT22;30950;53.086;21.576;2023-04-01T23:16:16;5.90;99.90
45207;DHT22;30950;53.086;21.576;2023-04-01T23:21:41;5.90;99.90
45207;DHT22;30950;53.086;21.576;2023-04-01T23:27:12;5.90;99.90
45207;DHT22;30950;53.086;21.576;2023-04-01T23:29:44;5.90;99.90
45207;DHT22;30950;53.086;21.576;2023-04-01T23:32:16;5.90;99.90
45207;DHT22;30950;53.086;21.576;2023-04-01T23:34:52;5.80;99.90
45207;DHT22;30950;53.086;21.576;2023-04-01T23:37:21;5.90;99.90
45207;DHT22;30950;53.086;21.576;2023-04-01T23:39:54;5.80;99.90
45207;DHT22;30950;53.086;21.576;2023-04-01T23:42:31;5.80;99.90
45207;DHT22;30950;53.086;21.576;2023-04-01T23:45:05;5.80;99.90
45207;DHT22;30950;53.086;21.576;2023-04-01T23:47:39;5.90;99.90
45207;DHT22;30950;53.086;21.576;2023-04-01T23:50:14;6.00;99.90
45207;DHT22;30950;53.086;21.576;2023-04-01T23:52:47;5.80;99.90
45207;DHT22;30950;53.086;21.576;2023-04-01T23:55:35;5.80;99.90
45207;DHT22;30950;53.086;21.576;2023-04-01T23:58:24;5.80;99.90
